createdAt,value
2022-10-19T00:00:51.116Z,1.70
2022-10-19T00:01:51.340Z,1.50
2022-10-19T00:02:51.169Z,1.30
2022-10-19T00:03:50.969Z,2.00
2022-10-19T00:04:51.080Z,1.30
2022-10-19T00:05:51.205Z,1.40
2022-10-19T00:06:51.137Z,1.20
2022-10-19T00:07:51.133Z,1.70
2022-10-19T00:08:51.118Z,1.40
2022-10-19T00:09:51.048Z,1.20
2022-10-19T00:10:51.127Z,1.40
2022-10-19T00:11:51.024Z,1.20
2022-10-19T00:12:51.031Z,1.30
2022-10-19T00:13:50.913Z,1.30
2022-10-19T00:14:50.973Z,1.40
2022-10-19T00:15:51.010Z,1.30
2022-10-19T00:16:50.987Z,1.70
2022-10-19T00:17:51.042Z,1.50
2022-10-19T00:18:50.789Z,1.30
2022-10-19T00:19:50.919Z,1.50
2022-10-19T00:20:50.837Z,1.50
2022-10-19T00:22:50.769Z,1.60
2022-10-19T00:23:51.046Z,1.40
2022-10-19T00:24:50.794Z,1.50
2022-10-19T00:25:51.007Z,1.30
2022-10-19T00:26:50.830Z,1.80
2022-10-19T00:27:51.028Z,1.40
2022-10-19T00:28:50.737Z,1.50
2022-10-19T00:29:50.752Z,1.40
2022-10-19T00:30:50.698Z,1.20
2022-10-19T00:31:50.839Z,1.30
2022-10-19T00:32:50.884Z,1.70
2022-10-19T00:33:50.783Z,1.30
2022-10-19T00:34:50.883Z,1.30
2022-10-19T00:35:50.718Z,1.60
2022-10-19T00:36:50.812Z,1.30
2022-10-19T00:37:50.681Z,1.30
2022-10-19T00:38:50.733Z,1.80
2022-10-19T00:40:50.648Z,1.20
2022-10-19T00:41:50.528Z,2.00
2022-10-19T00:42:50.707Z,1.70
2022-10-19T00:43:50.683Z,1.50
2022-10-19T00:44:50.470Z,1.70
2022-10-19T00:45:50.885Z,1.50
2022-10-19T00:46:50.567Z,1.60
2022-10-19T00:47:54.536Z,1.70
2022-10-19T00:48:51.323Z,1.70
2022-10-19T00:49:50.507Z,1.50
2022-10-19T00:50:50.441Z,1.30
2022-10-19T00:51:50.727Z,1.50
2022-10-19T00:52:50.403Z,1.50
2022-10-19T00:53:50.643Z,1.60
2022-10-19T00:54:50.566Z,1.80
2022-10-19T00:55:50.317Z,1.70
2022-10-19T00:56:50.519Z,1.50
2022-10-19T00:58:50.415Z,1.40
2022-10-19T00:59:50.753Z,1.60
2022-10-19T01:00:50.386Z,1.20
2022-10-19T01:01:50.844Z,1.30
2022-10-19T01:02:50.616Z,1.50
2022-10-19T01:03:50.398Z,1.70
2022-10-19T01:04:50.477Z,1.60
2022-10-19T01:05:50.752Z,1.40
2022-10-19T01:07:50.360Z,1.40
2022-10-19T01:08:50.209Z,1.20
2022-10-19T01:09:50.424Z,1.70
2022-10-19T01:10:50.226Z,1.50
2022-10-19T01:11:50.274Z,1.40
2022-10-19T01:12:50.274Z,1.60
2022-10-19T01:13:50.746Z,1.50
2022-10-19T01:14:50.220Z,1.50
2022-10-19T01:15:50.339Z,1.30
2022-10-19T01:16:50.059Z,1.60
2022-10-19T01:17:50.221Z,1.50
2022-10-19T01:18:50.118Z,1.30
2022-10-19T01:19:50.382Z,1.60
2022-10-19T01:20:50.045Z,1.60
2022-10-19T01:21:49.995Z,1.40
2022-10-19T01:22:50.018Z,1.30
2022-10-19T01:23:50.127Z,1.50
2022-10-19T01:24:50.260Z,1.40
2022-10-19T01:25:50.077Z,1.40
2022-10-19T01:26:49.968Z,1.50
2022-10-19T01:27:49.935Z,1.30
2022-10-19T01:28:50.005Z,1.40
2022-10-19T01:29:49.930Z,1.40
2022-10-19T01:30:50.043Z,1.30
2022-10-19T01:31:49.907Z,1.60
2022-10-19T01:32:49.896Z,1.40
2022-10-19T01:33:49.929Z,1.50
2022-10-19T01:34:49.977Z,1.50
2022-10-19T01:35:49.892Z,1.30
2022-10-19T01:36:49.855Z,1.50
2022-10-19T01:37:49.888Z,1.60
2022-10-19T01:38:49.826Z,1.40
2022-10-19T01:39:50.034Z,1.30
2022-10-19T01:40:50.117Z,1.70
2022-10-19T01:41:49.896Z,1.70
2022-10-19T01:42:49.793Z,1.50
2022-10-19T01:43:49.978Z,1.90
2022-10-19T01:44:49.706Z,1.60
2022-10-19T01:45:49.747Z,1.50
2022-10-19T01:46:49.766Z,1.50
2022-10-19T01:47:49.817Z,1.90
2022-10-19T01:48:49.778Z,1.60
2022-10-19T01:49:49.758Z,1.50
2022-10-19T01:50:49.598Z,1.70
2022-10-19T01:51:49.681Z,1.40
2022-10-19T01:52:49.686Z,1.60
2022-10-19T01:53:49.602Z,1.70
2022-10-19T01:54:49.601Z,1.60
2022-10-19T01:55:49.762Z,1.50
2022-10-19T01:56:49.768Z,1.70
2022-10-19T01:57:49.585Z,1.40
2022-10-19T01:58:49.737Z,1.20
2022-10-19T01:59:49.725Z,1.70
2022-10-19T02:00:49.718Z,2.00
2022-10-19T02:01:49.436Z,1.40
2022-10-19T02:02:49.462Z,1.70
2022-10-19T02:03:49.572Z,1.50
2022-10-19T02:04:49.533Z,1.40
2022-10-19T02:05:49.435Z,1.60
2022-10-19T02:06:49.428Z,1.60
2022-10-19T02:07:49.415Z,1.50
2022-10-19T02:08:49.469Z,1.30
2022-10-19T02:09:49.328Z,1.40
2022-10-19T02:10:49.549Z,1.50
2022-10-19T02:11:50.494Z,1.60
2022-10-19T02:12:49.316Z,1.30
2022-10-19T02:13:49.422Z,1.40
2022-10-19T02:14:49.290Z,1.50
2022-10-19T02:15:49.332Z,1.40
2022-10-19T02:16:49.313Z,1.50
2022-10-19T02:17:49.331Z,1.30
2022-10-19T02:18:49.403Z,1.40
2022-10-19T02:19:49.256Z,1.60
2022-10-19T02:20:49.297Z,1.40
2022-10-19T02:21:49.235Z,1.60
2022-10-19T02:22:49.179Z,1.50
2022-10-19T02:23:51.903Z,1.70
2022-10-19T02:24:49.331Z,1.50
2022-10-19T02:25:49.136Z,1.50
2022-10-19T02:26:49.236Z,1.60
2022-10-19T02:27:49.352Z,1.60
2022-10-19T02:28:49.221Z,1.40
2022-10-19T02:29:49.522Z,1.70
2022-10-19T02:30:49.154Z,1.60
2022-10-19T02:31:49.389Z,1.70
2022-10-19T02:32:49.206Z,1.70
2022-10-19T02:33:49.173Z,1.60
2022-10-19T02:34:49.111Z,1.80
2022-10-19T02:35:49.066Z,1.80
2022-10-19T02:36:49.072Z,1.60
2022-10-19T02:37:49.188Z,1.50
2022-10-19T02:38:49.130Z,1.50
2022-10-19T02:39:49.031Z,1.70
2022-10-19T02:40:49.141Z,1.50
2022-10-19T02:41:48.971Z,1.50
2022-10-19T02:42:48.939Z,1.30
2022-10-19T02:43:48.908Z,2.10
2022-10-19T02:44:48.972Z,1.50
2022-10-19T02:45:48.979Z,1.40
2022-10-19T02:46:49.120Z,1.40
2022-10-19T02:47:48.944Z,1.30
2022-10-19T02:48:48.881Z,1.90
2022-10-19T02:49:48.803Z,1.50
2022-10-19T02:50:49.216Z,1.60
2022-10-19T02:51:48.895Z,1.40
2022-10-19T02:52:48.922Z,1.60
2022-10-19T02:53:48.864Z,1.50
2022-10-19T02:54:49.601Z,1.50
2022-10-19T02:55:48.919Z,1.50
2022-10-19T02:56:48.829Z,1.60
2022-10-19T02:57:48.887Z,1.50
2022-10-19T02:58:48.755Z,1.60
2022-10-19T02:59:48.810Z,1.40
2022-10-19T03:00:48.811Z,1.60
2022-10-19T03:01:48.822Z,1.60
2022-10-19T03:02:48.842Z,1.60
2022-10-19T03:03:48.800Z,1.70
2022-10-19T03:04:48.687Z,1.80
2022-10-19T03:05:48.698Z,1.40
2022-10-19T03:06:48.703Z,1.70
2022-10-19T03:07:48.668Z,1.50
2022-10-19T03:08:48.758Z,1.50
2022-10-19T03:09:48.709Z,1.50
2022-10-19T03:10:48.786Z,1.60
2022-10-19T03:11:48.577Z,1.40
2022-10-19T03:12:48.718Z,1.50
2022-10-19T03:14:48.600Z,1.60
2022-10-19T03:15:48.536Z,1.60
2022-10-19T03:16:48.522Z,1.80
2022-10-19T03:17:48.530Z,1.70
2022-10-19T03:18:48.732Z,1.60
2022-10-19T03:19:48.697Z,1.30
2022-10-19T03:20:48.550Z,1.50
2022-10-19T03:21:48.515Z,1.40
2022-10-19T03:22:48.791Z,1.60
2022-10-19T03:23:48.453Z,2.00
2022-10-19T03:24:48.491Z,1.40
2022-10-19T03:25:48.387Z,1.70
2022-10-19T03:26:48.400Z,1.30
2022-10-19T03:27:48.498Z,1.90
2022-10-19T03:28:48.416Z,1.60
2022-10-19T03:29:48.420Z,1.50
2022-10-19T03:30:48.478Z,1.40
2022-10-19T03:31:48.426Z,1.50
2022-10-19T03:32:48.571Z,1.30
2022-10-19T03:33:48.349Z,1.40
2022-10-19T03:34:48.340Z,1.70
2022-10-19T03:35:48.259Z,1.70
2022-10-19T03:36:48.358Z,1.40
2022-10-19T03:37:48.229Z,1.50
2022-10-19T03:38:48.272Z,1.60
2022-10-19T03:39:48.182Z,1.90
2022-10-19T03:40:48.245Z,1.80
2022-10-19T03:41:48.286Z,1.90
2022-10-19T03:42:48.208Z,1.90
2022-10-19T03:43:48.255Z,1.80
2022-10-19T03:44:48.217Z,1.60
2022-10-19T03:45:48.183Z,1.60
2022-10-19T03:46:48.081Z,1.70
2022-10-19T03:47:48.186Z,1.50
2022-10-19T03:48:48.070Z,1.80
2022-10-19T03:49:48.185Z,1.50
2022-10-19T03:50:48.229Z,2.00
2022-10-19T03:51:48.210Z,1.60
2022-10-19T03:52:48.153Z,1.80
2022-10-19T03:53:48.226Z,1.80
2022-10-19T03:54:48.051Z,1.70
2022-10-19T03:55:48.167Z,2.10
2022-10-19T03:56:48.095Z,1.80
2022-10-19T03:57:48.054Z,1.40
2022-10-19T03:58:48.078Z,1.80
2022-10-19T03:59:48.108Z,1.60
2022-10-19T04:00:48.078Z,1.70
2022-10-19T04:01:47.898Z,1.80
2022-10-19T04:02:47.944Z,1.80
2022-10-19T04:03:47.842Z,1.90
2022-10-19T04:04:48.011Z,1.80
2022-10-19T04:05:47.951Z,1.90
2022-10-19T04:06:47.857Z,1.60
2022-10-19T04:07:47.989Z,2.10
2022-10-19T04:08:47.878Z,1.80
2022-10-19T04:09:47.843Z,1.90
2022-10-19T04:10:47.903Z,2.20
2022-10-19T04:11:47.771Z,1.70
2022-10-19T04:12:53.013Z,1.90
2022-10-19T04:13:48.764Z,1.90
2022-10-19T04:14:56.903Z,1.80
2022-10-19T04:15:49.005Z,1.80
2022-10-19T04:16:47.752Z,1.80
2022-10-19T04:17:48.709Z,1.40
2022-10-19T04:18:47.868Z,1.80
2022-10-19T04:19:47.740Z,1.70
2022-10-19T04:20:47.794Z,2.00
2022-10-19T04:21:47.703Z,1.80
2022-10-19T04:22:48.002Z,2.20
2022-10-19T04:23:47.741Z,1.90
2022-10-19T04:24:47.592Z,1.80
2022-10-19T04:25:47.804Z,1.60
2022-10-19T04:26:47.705Z,1.60
2022-10-19T04:27:47.609Z,1.90
2022-10-19T04:28:47.790Z,1.90
2022-10-19T04:29:47.628Z,2.00
2022-10-19T04:30:47.718Z,1.60
2022-10-19T04:31:47.637Z,1.80
2022-10-19T04:32:47.682Z,1.90
2022-10-19T04:33:47.647Z,1.90
2022-10-19T04:34:47.639Z,1.80
2022-10-19T04:35:47.577Z,1.60
2022-10-19T04:36:47.667Z,2.00
2022-10-19T04:37:47.834Z,2.20
2022-10-19T04:38:47.713Z,2.20
2022-10-19T04:39:47.413Z,2.20
2022-10-19T04:40:47.503Z,1.90
2022-10-19T04:41:47.444Z,1.60
2022-10-19T04:42:47.565Z,2.00
2022-10-19T04:43:47.581Z,1.70
2022-10-19T04:44:47.818Z,1.90
2022-10-19T04:45:47.469Z,1.80
2022-10-19T04:46:47.712Z,1.90
2022-10-19T04:47:47.486Z,2.00
2022-10-19T04:48:47.428Z,1.90
2022-10-19T04:49:47.786Z,1.90
2022-10-19T04:50:47.268Z,2.20
2022-10-19T04:51:47.248Z,1.90
2022-10-19T04:52:47.488Z,2.00
2022-10-19T04:53:47.544Z,2.10
2022-10-19T04:54:47.308Z,2.10
2022-10-19T04:55:47.261Z,2.10
2022-10-19T04:56:47.321Z,2.20
2022-10-19T04:57:47.343Z,1.70
2022-10-19T04:58:47.197Z,1.80
2022-10-19T04:59:47.140Z,2.20
2022-10-19T05:00:47.173Z,1.80
2022-10-19T05:01:47.531Z,2.50
2022-10-19T05:02:47.350Z,2.30
2022-10-19T05:03:47.178Z,2.30
2022-10-19T05:04:47.527Z,2.00
2022-10-19T05:05:47.048Z,1.90
2022-10-19T05:06:47.203Z,2.10
2022-10-19T05:07:47.110Z,2.30
2022-10-19T05:08:47.026Z,2.10
2022-10-19T05:09:46.976Z,2.40
2022-10-19T05:10:47.840Z,2.20
2022-10-19T05:11:47.020Z,1.90
2022-10-19T05:12:47.104Z,2.10
2022-10-19T05:13:47.112Z,2.00
2022-10-19T05:14:47.105Z,2.00
2022-10-19T05:15:46.995Z,2.10
2022-10-19T05:16:46.904Z,2.20
2022-10-19T05:17:46.898Z,2.10
2022-10-19T05:18:46.961Z,1.80
2022-10-19T05:19:47.077Z,2.20
2022-10-19T05:20:46.922Z,1.90
2022-10-19T05:21:46.856Z,2.10
2022-10-19T05:22:46.979Z,2.40
2022-10-19T05:23:47.030Z,2.00
2022-10-19T05:24:46.861Z,2.60
2022-10-19T05:25:46.836Z,2.20
2022-10-19T05:26:46.870Z,2.10
2022-10-19T05:27:46.865Z,2.00
2022-10-19T05:28:46.839Z,2.30
2022-10-19T05:29:46.810Z,2.40
2022-10-19T05:30:49.034Z,2.10
2022-10-19T05:31:48.725Z,2.40
2022-10-19T05:32:46.953Z,2.70
2022-10-19T05:33:46.854Z,2.40
2022-10-19T05:34:46.744Z,2.40
2022-10-19T05:35:46.911Z,2.40
2022-10-19T05:36:46.798Z,2.40
2022-10-19T05:37:46.791Z,2.50
2022-10-19T05:38:46.684Z,2.30
2022-10-19T05:39:47.893Z,2.50
2022-10-19T05:40:50.371Z,2.70
2022-10-19T05:41:47.643Z,2.60
2022-10-19T05:42:46.986Z,2.80
2022-10-19T05:43:46.993Z,2.70
2022-10-19T05:44:46.740Z,3.00
2022-10-19T05:45:46.666Z,2.90
2022-10-19T05:46:46.596Z,3.00
2022-10-19T05:47:46.582Z,2.60
2022-10-19T05:48:46.712Z,2.80
2022-10-19T05:49:46.461Z,2.60
2022-10-19T05:50:46.571Z,2.80
2022-10-19T05:51:46.539Z,2.70
2022-10-19T05:52:46.473Z,2.90
2022-10-19T05:53:46.453Z,2.90
2022-10-19T05:54:46.734Z,2.70
2022-10-19T05:55:46.554Z,2.80
2022-10-19T05:56:46.485Z,2.50
2022-10-19T05:57:46.380Z,2.50
2022-10-19T05:58:46.472Z,2.60
2022-10-19T05:59:46.419Z,2.50
2022-10-19T06:00:46.688Z,2.30
2022-10-19T06:01:46.702Z,2.30
2022-10-19T06:02:46.314Z,2.60
2022-10-19T06:03:46.328Z,2.50
2022-10-19T06:04:46.246Z,2.40
2022-10-19T06:05:46.361Z,2.60
2022-10-19T06:06:46.202Z,2.80
2022-10-19T06:07:46.335Z,2.40
2022-10-19T06:08:46.382Z,2.80
2022-10-19T06:09:46.491Z,2.80
2022-10-19T06:10:46.330Z,2.60
2022-10-19T06:11:46.203Z,2.50
2022-10-19T06:12:46.389Z,3.00
2022-10-19T06:13:46.171Z,3.00
2022-10-19T06:15:46.248Z,2.50
2022-10-19T06:16:46.373Z,2.90
2022-10-19T06:17:47.689Z,2.70
2022-10-19T06:18:49.273Z,2.90
2022-10-19T06:19:47.949Z,3.00
2022-10-19T06:20:48.542Z,3.20
2022-10-19T06:21:46.903Z,2.60
2022-10-19T06:22:48.438Z,2.70
2022-10-19T06:23:46.959Z,2.90
2022-10-19T06:24:47.876Z,2.80
2022-10-19T06:25:46.225Z,2.70
2022-10-19T06:26:46.913Z,2.60
2022-10-19T06:27:46.294Z,3.00
2022-10-19T06:28:46.141Z,2.70
2022-10-19T06:29:46.468Z,2.90
2022-10-19T06:30:46.146Z,2.90
2022-10-19T06:31:46.034Z,2.60
2022-10-19T06:32:46.271Z,2.60
2022-10-19T06:33:48.643Z,2.40
2022-10-19T06:34:45.919Z,2.00
2022-10-19T06:35:46.022Z,2.40
2022-10-19T06:36:45.903Z,2.40
2022-10-19T06:37:46.093Z,2.50
2022-10-19T06:38:45.927Z,2.30
2022-10-19T06:39:46.106Z,2.20
2022-10-19T06:40:45.924Z,2.00
2022-10-19T06:41:46.007Z,2.10
2022-10-19T06:42:45.830Z,1.90
2022-10-19T06:43:45.872Z,2.20
2022-10-19T06:44:45.795Z,2.20
2022-10-19T06:45:46.062Z,2.20
2022-10-19T06:46:46.050Z,2.00
2022-10-19T06:47:48.903Z,2.10
2022-10-19T06:48:45.836Z,2.20
2022-10-19T06:49:46.009Z,2.00
2022-10-19T06:50:46.172Z,2.40
2022-10-19T06:51:46.001Z,2.30
2022-10-19T06:52:46.400Z,1.80
2022-10-19T06:53:45.843Z,2.30
2022-10-19T06:54:45.902Z,2.30
2022-10-19T06:55:45.857Z,2.10
2022-10-19T06:56:45.786Z,1.90
2022-10-19T06:57:45.915Z,2.00
2022-10-19T06:58:46.036Z,1.90
2022-10-19T06:59:48.086Z,2.00
2022-10-19T07:00:47.145Z,2.20
2022-10-19T07:01:46.033Z,2.40
2022-10-19T07:02:45.672Z,2.10
2022-10-19T07:03:47.209Z,2.00
2022-10-19T07:04:45.706Z,2.50
2022-10-19T07:05:46.196Z,2.40
2022-10-19T07:06:46.272Z,2.40
2022-10-19T07:07:45.717Z,2.30
2022-10-19T07:08:46.418Z,2.20
2022-10-19T07:09:46.838Z,2.50
2022-10-19T07:10:46.163Z,2.20
2022-10-19T07:11:46.356Z,2.20
2022-10-19T07:12:46.040Z,2.20
2022-10-19T07:13:46.708Z,2.20
2022-10-19T07:14:46.465Z,2.30
2022-10-19T07:15:46.834Z,2.30
2022-10-19T07:16:47.306Z,2.30
2022-10-19T07:17:47.039Z,2.00
2022-10-19T07:18:48.175Z,2.10
2022-10-19T07:19:49.880Z,2.30
2022-10-19T07:20:48.717Z,2.70
2022-10-19T07:21:46.747Z,2.60
2022-10-19T07:22:48.722Z,2.60
2022-10-19T07:23:47.700Z,2.10
2022-10-19T07:24:51.754Z,2.00
2022-10-19T07:25:48.788Z,2.10
2022-10-19T07:26:47.250Z,2.10
2022-10-19T07:27:47.924Z,2.30
2022-10-19T07:28:48.519Z,2.40
2022-10-19T07:29:47.531Z,2.50
2022-10-19T07:30:48.683Z,2.60
2022-10-19T07:31:49.203Z,4.40
2022-10-19T07:32:47.300Z,2.60
2022-10-19T07:33:49.462Z,2.20
2022-10-19T07:34:50.663Z,2.40
2022-10-19T07:35:46.777Z,2.10
2022-10-19T07:36:47.294Z,2.20
2022-10-19T07:37:47.950Z,2.40
2022-10-19T07:38:46.730Z,2.30
2022-10-19T07:39:45.292Z,2.00
2022-10-19T07:40:47.744Z,2.40
2022-10-19T07:41:45.931Z,2.00
2022-10-19T07:42:48.127Z,2.70
2022-10-19T07:43:47.852Z,2.10
2022-10-19T07:44:45.353Z,2.30
2022-10-19T07:45:45.969Z,2.40
2022-10-19T07:46:48.125Z,2.30
2022-10-19T07:47:45.256Z,2.50
2022-10-19T07:48:46.022Z,2.10
2022-10-19T07:49:47.663Z,2.20
2022-10-19T07:50:45.643Z,2.10
2022-10-19T07:51:46.051Z,2.10
2022-10-19T07:52:48.023Z,2.00
2022-10-19T07:53:47.547Z,2.00
2022-10-19T07:54:47.455Z,2.60
2022-10-19T07:55:46.076Z,2.10
2022-10-19T07:56:46.321Z,2.50
2022-10-19T07:57:48.380Z,2.20
2022-10-19T07:58:46.036Z,2.20
2022-10-19T07:59:47.296Z,2.20
2022-10-19T08:00:46.953Z,2.30
2022-10-19T08:01:46.417Z,2.20
2022-10-19T08:02:57.786Z,2.40
2022-10-19T08:05:00.319Z,2.10
2022-10-19T08:05:47.693Z,2.30
2022-10-19T08:06:47.677Z,2.30
2022-10-19T08:07:46.645Z,2.00
2022-10-19T08:08:44.996Z,2.20
2022-10-19T08:09:53.339Z,2.20
2022-10-19T08:10:47.964Z,2.10
2022-10-19T08:11:45.753Z,2.00
2022-10-19T08:12:45.726Z,2.00
2022-10-19T08:13:45.326Z,1.90
2022-10-19T08:14:46.451Z,2.20
2022-10-19T08:15:46.182Z,2.00
2022-10-19T08:16:50.789Z,1.90
2022-10-19T08:17:46.594Z,2.00
2022-10-19T08:19:08.331Z,1.70
2022-10-19T08:19:47.256Z,1.90
2022-10-19T08:20:46.696Z,1.40
2022-10-19T08:21:47.293Z,1.70
2022-10-19T08:22:45.954Z,1.80
2022-10-19T08:23:45.894Z,2.00
2022-10-19T08:24:46.351Z,1.70
2022-10-19T08:25:45.466Z,1.60
2022-10-19T08:26:46.962Z,1.60
2022-10-19T08:27:45.759Z,1.40
2022-10-19T08:28:49.448Z,1.80
2022-10-19T08:29:46.253Z,1.60
2022-10-19T08:30:44.902Z,1.80
2022-10-19T08:31:45.772Z,2.10
2022-10-19T08:32:46.025Z,3.40
2022-10-19T08:33:46.885Z,2.40
2022-10-19T08:34:45.772Z,3.50
2022-10-19T08:35:45.860Z,2.90
2022-10-19T08:36:45.369Z,3.30
2022-10-19T08:37:45.766Z,3.50
2022-10-19T08:38:44.674Z,3.30
2022-10-19T08:39:44.862Z,3.50
2022-10-19T08:40:46.303Z,4.40
2022-10-19T08:42:44.850Z,2.90
2022-10-19T08:43:44.966Z,3.50
2022-10-19T08:44:45.733Z,3.40
2022-10-19T08:45:44.686Z,4.10
2022-10-19T08:46:44.580Z,3.00
2022-10-19T08:47:45.196Z,2.60
2022-10-19T08:48:44.486Z,2.30
2022-10-19T08:49:45.677Z,2.60
2022-10-19T08:50:44.225Z,1.80
2022-10-19T08:51:46.585Z,1.70
2022-10-19T08:52:46.656Z,1.20
2022-10-19T08:53:44.588Z,1.30
2022-10-19T08:55:45.749Z,1.50
2022-10-19T08:56:52.173Z,1.20
2022-10-19T08:57:45.440Z,1.40
2022-10-19T08:58:44.635Z,1.30
2022-10-19T08:59:44.972Z,1.30
2022-10-19T09:00:45.025Z,1.40
2022-10-19T09:01:44.490Z,1.40
2022-10-19T09:02:44.762Z,1.20
2022-10-19T09:03:55.032Z,6.20
2022-10-19T09:04:45.211Z,3.50
2022-10-19T09:05:44.132Z,2.50
2022-10-19T09:06:44.514Z,3.10
2022-10-19T09:07:44.671Z,2.00
2022-10-19T09:08:44.135Z,2.60
2022-10-19T09:10:44.338Z,1.90
2022-10-19T09:11:44.446Z,2.00
2022-10-19T09:12:44.317Z,1.90
2022-10-19T09:14:04.320Z,1.70
2022-10-19T09:14:47.191Z,1.90
2022-10-19T09:15:44.968Z,1.90
2022-10-19T09:16:44.613Z,1.80
2022-10-19T09:17:44.390Z,1.20
2022-10-19T09:18:44.596Z,1.00
2022-10-19T09:19:44.740Z,1.00
2022-10-19T09:20:44.619Z,0.90
2022-10-19T09:21:47.858Z,0.90
2022-10-19T09:22:44.164Z,1.20
2022-10-19T09:23:44.772Z,0.90
2022-10-19T09:24:44.154Z,1.10
2022-10-19T09:25:44.570Z,0.90
2022-10-19T09:26:43.941Z,0.70
2022-10-19T09:27:44.291Z,1.00
2022-10-19T09:28:45.859Z,0.80
2022-10-19T09:29:44.603Z,1.00
2022-10-19T09:30:43.950Z,0.80
2022-10-19T09:31:43.926Z,0.70
2022-10-19T09:32:45.318Z,0.70
2022-10-19T09:33:44.711Z,0.80
2022-10-19T09:34:44.461Z,0.70
2022-10-19T09:35:44.382Z,0.80
2022-10-19T09:36:50.547Z,0.80
2022-10-19T09:37:45.814Z,0.60
2022-10-19T09:38:44.764Z,1.10
2022-10-19T09:39:52.399Z,0.60
2022-10-19T09:40:44.968Z,0.80
2022-10-19T09:41:44.916Z,0.50
2022-10-19T09:42:51.188Z,0.60
2022-10-19T09:43:48.804Z,0.60
2022-10-19T09:44:44.623Z,0.70
2022-10-19T09:45:50.469Z,0.50
2022-10-19T09:46:47.123Z,0.70
2022-10-19T09:47:47.986Z,0.60
2022-10-19T09:48:45.026Z,0.70
2022-10-19T09:49:45.174Z,0.60
2022-10-19T09:50:43.822Z,0.70
2022-10-19T09:51:44.694Z,0.50
2022-10-19T09:52:46.382Z,0.70
2022-10-19T09:53:44.967Z,0.80
2022-10-19T09:54:43.458Z,0.90
2022-10-19T09:55:44.450Z,0.90
2022-10-19T09:56:43.820Z,0.90
2022-10-19T09:57:44.170Z,0.90
2022-10-19T09:58:46.237Z,0.80
2022-10-19T09:59:45.430Z,1.20
2022-10-19T10:00:43.268Z,1.10
2022-10-19T10:01:45.140Z,0.70
2022-10-19T10:03:45.771Z,1.00
2022-10-19T10:04:47.596Z,0.80
2022-10-19T10:05:46.370Z,0.60
2022-10-19T10:06:46.859Z,1.50
2022-10-19T10:07:45.741Z,1.30
2022-10-19T10:08:45.382Z,1.30
2022-10-19T10:09:44.925Z,1.90
2022-10-19T10:10:45.519Z,1.40
2022-10-19T10:11:43.366Z,1.50
2022-10-19T10:12:45.300Z,1.10
2022-10-19T10:13:43.635Z,0.90
2022-10-19T10:14:46.144Z,1.20
2022-10-19T10:15:45.029Z,0.60
2022-10-19T10:16:44.518Z,0.50
2022-10-19T10:17:43.633Z,1.70
2022-10-19T10:18:44.270Z,1.50
2022-10-19T10:19:45.989Z,0.50
2022-10-19T10:20:44.121Z,0.60
2022-10-19T10:21:44.372Z,0.80
2022-10-19T10:22:43.645Z,0.70
2022-10-19T10:23:44.676Z,0.70
2022-10-19T10:24:47.497Z,1.10
2022-10-19T10:25:45.035Z,0.60
2022-10-19T10:26:49.850Z,1.20
2022-10-19T10:27:44.237Z,0.80
2022-10-19T10:28:45.853Z,0.50
2022-10-19T10:29:43.035Z,0.50
2022-10-19T10:30:44.378Z,0.50
2022-10-19T10:31:44.189Z,0.50
2022-10-19T10:32:48.054Z,0.70
2022-10-19T10:39:51.302Z,0.80
2022-10-19T10:40:54.463Z,0.70
2022-10-19T10:41:50.649Z,1.80
2022-10-19T10:42:51.204Z,1.00
2022-10-19T10:43:52.814Z,0.90
2022-10-19T10:44:51.104Z,1.50
2022-10-19T10:45:50.954Z,0.90
2022-10-19T10:46:51.982Z,1.00
2022-10-19T10:47:52.061Z,1.00
2022-10-19T10:48:53.384Z,0.70
2022-10-19T10:49:50.557Z,0.90
2022-10-19T10:50:50.848Z,1.30
2022-10-19T10:51:53.140Z,1.20
2022-10-19T10:52:51.412Z,1.70
2022-10-19T10:53:50.893Z,1.20
2022-10-19T10:54:53.471Z,1.10
2022-10-19T10:55:50.422Z,1.30
2022-10-19T10:56:51.718Z,1.30
2022-10-19T10:57:50.536Z,1.10
2022-10-19T10:58:50.334Z,1.20
2022-10-19T10:59:59.005Z,1.00
2022-10-19T11:00:50.459Z,1.10
2022-10-19T11:01:50.454Z,0.70
2022-10-19T11:02:51.451Z,1.00
2022-10-19T11:03:50.496Z,1.00
2022-10-19T11:04:54.026Z,1.00
2022-10-19T11:05:53.560Z,1.20
2022-10-19T11:06:50.428Z,1.00
2022-10-19T11:07:50.672Z,0.90
2022-10-19T11:08:51.316Z,1.00
2022-10-19T11:09:55.389Z,0.80
2022-10-19T11:10:51.524Z,1.00
2022-10-19T11:11:51.417Z,1.20
2022-10-19T11:12:52.371Z,1.10
2022-10-19T11:13:50.710Z,1.00
2022-10-19T11:14:50.305Z,0.70
2022-10-19T11:15:50.257Z,0.90
2022-10-19T11:16:50.949Z,0.90
2022-10-19T11:17:51.952Z,1.00
2022-10-19T11:18:55.528Z,0.90
2022-10-19T11:19:50.173Z,0.90
2022-10-19T11:20:50.705Z,0.70
2022-10-19T11:21:52.215Z,1.00
2022-10-19T11:22:50.513Z,1.10
2022-10-19T11:23:51.849Z,0.70
2022-10-19T11:24:50.221Z,0.90
2022-10-19T11:25:50.670Z,1.00
2022-10-19T11:26:49.843Z,0.70
2022-10-19T11:27:52.317Z,0.90
2022-10-19T11:28:50.811Z,0.80
2022-10-19T11:29:50.432Z,0.90
2022-10-19T11:30:50.745Z,0.90
2022-10-19T11:31:51.265Z,0.90
2022-10-19T11:32:51.085Z,0.80
2022-10-19T11:33:50.784Z,1.10
2022-10-19T11:34:53.253Z,1.00
2022-10-19T11:35:55.553Z,0.90
2022-10-19T11:36:50.770Z,1.00
2022-10-19T11:38:17.587Z,0.90
2022-10-19T11:38:52.668Z,1.10
2022-10-19T11:39:49.655Z,1.00
2022-10-19T11:41:13.290Z,1.00
2022-10-19T11:41:51.342Z,1.00
2022-10-19T11:42:50.474Z,0.90
2022-10-19T11:43:50.455Z,1.10
2022-10-19T11:44:50.089Z,1.20
2022-10-19T11:45:49.719Z,1.50
2022-10-19T11:46:49.422Z,1.10
2022-10-19T11:47:52.736Z,1.10
2022-10-19T11:48:54.173Z,1.20
2022-10-19T11:49:50.038Z,1.00
2022-10-19T11:50:54.219Z,1.30
2022-10-19T11:51:54.199Z,1.20
2022-10-19T11:52:52.830Z,1.10
2022-10-19T11:53:50.966Z,1.10
2022-10-19T11:54:54.173Z,1.00
2022-10-19T11:55:49.799Z,0.90
2022-10-19T11:57:08.300Z,1.20
2022-10-19T11:57:51.248Z,1.20
2022-10-19T11:58:51.873Z,1.00
2022-10-19T11:59:53.387Z,1.30
2022-10-19T12:00:52.545Z,1.10
2022-10-19T12:01:50.663Z,1.40
2022-10-19T12:02:50.157Z,1.10
2022-10-19T12:03:53.325Z,1.20
2022-10-19T12:04:51.064Z,1.00
2022-10-19T12:05:50.835Z,1.00
2022-10-19T12:06:50.385Z,1.00
2022-10-19T12:07:50.878Z,1.40
2022-10-19T12:08:52.417Z,1.10
2022-10-19T12:09:52.528Z,1.00
2022-10-19T12:10:51.435Z,1.00
2022-10-19T12:11:50.129Z,1.00
2022-10-19T12:12:53.078Z,1.10
2022-10-19T12:13:49.523Z,0.80
2022-10-19T12:14:53.986Z,1.00
2022-10-19T12:15:53.969Z,0.90
2022-10-19T12:16:49.367Z,1.00
2022-10-19T12:17:51.475Z,1.00
2022-10-19T12:18:51.279Z,1.20
2022-10-19T12:19:53.175Z,1.40
2022-10-19T12:20:50.534Z,1.00
2022-10-19T12:21:57.471Z,0.90
2022-10-19T12:22:51.118Z,0.80
2022-10-19T12:23:48.957Z,1.00
2022-10-19T12:24:49.469Z,1.10
2022-10-19T12:25:49.050Z,1.00
2022-10-19T12:26:52.160Z,1.10
2022-10-19T12:27:50.819Z,1.00
2022-10-19T12:28:54.677Z,1.10
2022-10-19T12:29:51.327Z,1.10
2022-10-19T12:30:48.996Z,1.00
2022-10-19T12:31:50.467Z,0.80
2022-10-19T12:32:53.489Z,0.80
2022-10-19T12:33:51.250Z,1.00
2022-10-19T12:34:49.347Z,0.80
2022-10-19T12:35:50.766Z,0.80
2022-10-19T12:36:49.844Z,0.90
2022-10-19T12:37:49.467Z,0.90
2022-10-19T12:38:50.954Z,1.00
2022-10-19T12:39:50.559Z,0.80
2022-10-19T12:40:51.711Z,0.90
2022-10-19T12:41:50.880Z,1.10
2022-10-19T12:42:55.967Z,1.20
2022-10-19T12:43:49.490Z,1.00
2022-10-19T12:44:53.789Z,1.00
2022-10-19T12:45:51.935Z,1.20
2022-10-19T12:46:52.454Z,1.40
2022-10-19T12:47:49.251Z,1.90
2022-10-19T12:48:49.328Z,1.60
2022-10-19T12:49:49.466Z,1.40
2022-10-19T12:50:51.355Z,1.20
2022-10-19T12:51:48.726Z,0.90
2022-10-19T12:52:49.961Z,0.70
2022-10-19T12:53:53.377Z,0.90
2022-10-19T12:54:48.512Z,0.90
2022-10-19T12:55:50.288Z,0.90
2022-10-19T12:56:50.122Z,0.80
2022-10-19T12:57:55.520Z,0.90
2022-10-19T12:58:50.051Z,1.00
2022-10-19T12:59:49.401Z,0.70
2022-10-19T13:00:49.137Z,0.80
2022-10-19T13:02:11.870Z,1.00
2022-10-19T13:02:49.966Z,1.10
2022-10-19T13:03:48.600Z,0.90
2022-10-19T13:04:48.303Z,0.80
2022-10-19T13:05:49.763Z,1.00
2022-10-19T13:06:48.762Z,0.70
2022-10-19T13:07:48.611Z,0.80
2022-10-19T13:08:49.301Z,0.80
2022-10-19T13:09:49.060Z,0.90
2022-10-19T13:10:48.757Z,0.90
2022-10-19T13:11:49.350Z,1.00
2022-10-19T13:12:52.328Z,1.00
2022-10-19T13:13:51.730Z,0.80
2022-10-19T13:14:51.264Z,0.80
2022-10-19T13:15:48.623Z,1.10
2022-10-19T13:16:50.557Z,1.30
2022-10-19T13:17:50.902Z,1.20
2022-10-19T13:18:50.572Z,1.10
2022-10-19T13:19:49.103Z,0.90
2022-10-19T13:20:49.310Z,1.00
2022-10-19T13:21:49.722Z,0.80
2022-10-19T13:22:48.245Z,0.70
2022-10-19T13:23:50.439Z,0.80
2022-10-19T13:24:54.267Z,0.50
2022-10-19T13:25:48.824Z,0.70
2022-10-19T13:26:49.053Z,0.70
2022-10-19T13:27:49.483Z,0.60
2022-10-19T13:28:48.538Z,0.90
2022-10-19T13:29:49.113Z,2.10
2022-10-19T13:30:49.906Z,1.80
2022-10-19T13:31:48.810Z,1.10
2022-10-19T13:32:48.689Z,4.00
2022-10-19T13:33:48.505Z,2.10
2022-10-19T13:34:48.155Z,1.70
2022-10-19T13:35:48.266Z,1.10